Time;durP1;ratioP1;P1;durP2;ratioP2;P2;SDS_P1;SDS_P2;PMS_P1;PMS_P2;Temp;Humidity;BMP_temperature;BMP_pressure;BME280_temperature;BME280_humidity;BME280_pressure;Samples;Min_cycle;Max_cycle;Signal;HPM_P1;HPM_P2
2021/09/07 00:00:21;;;;;;;8.27;7.47;;;16.10;99.90;;;;;;5073117;28;20292;-62
2021/09/07 00:02:48;;;;;;;9.07;7.63;;;16.10;99.90;;;;;;5072924;28;20224;-62
2021/09/07 00:05:14;;;;;;;9.90;7.30;;;16.10;99.90;;;;;;5073238;28;20614;-62
2021/09/07 00:07:42;;;;;;;9.37;7.50;;;16.10;99.90;;;;;;5072967;28;20239;-62
2021/09/07 00:10:11;;;;;;;7.77;6.97;;;16.10;99.90;;;;;;5073046;28;20212;-62
2021/09/07 00:12:39;;;;;;;8.83;7.40;;;16.10;99.90;;;;;;5072907;28;20241;-62
2021/09/07 00:15:09;;;;;;;9.27;7.80;;;16.10;99.90;;;;;;5072693;28;20257;-62
2021/09/07 00:17:36;;;;;;;9.10;8.03;;;16.00;99.90;;;;;;5073096;28;20519;-62
2021/09/07 00:20:04;;;;;;;9.50;7.47;;;16.00;99.90;;;;;;5072688;28;20231;-62
2021/09/07 00:22:30;;;;;;;9.47;7.63;;;15.90;99.90;;;;;;5072766;28;20386;-62
2021/09/07 00:24:57;;;;;;;9.00;7.77;;;15.90;99.90;;;;;;5072590;28;20607;-62
2021/09/07 00:27:23;;;;;;;10.53;7.47;;;15.90;99.90;;;;;;5072326;28;20655;-62
2021/09/07 00:29:52;;;;;;;8.20;7.30;;;15.90;99.90;;;;;;5072321;28;20212;-62
2021/09/07 00:32:18;;;;;;;10.87;8.17;;;15.90;99.90;;;;;;5072598;28;20207;-62
2021/09/07 00:34:45;;;;;;;9.80;7.73;;;15.90;99.90;;;;;;5072374;28;20259;-62
2021/09/07 00:37:12;;;;;;;10.27;7.50;;;15.80;99.90;;;;;;5072392;28;20221;-62
2021/09/07 00:39:38;;;;;;;9.20;7.53;;;15.80;99.90;;;;;;5072142;28;20213;-62
2021/09/07 00:42:05;;;;;;;8.87;7.27;;;15.70;99.90;;;;;;5072212;28;20274;-62
2021/09/07 00:44:32;;;;;;;9.03;7.70;;;15.70;99.90;;;;;;5072282;28;20266;-62
2021/09/07 00:47:02;;;;;;;8.77;7.87;;;15.60;99.90;;;;;;5072253;28;20209;-62
2021/09/07 00:49:30;;;;;;;9.67;7.50;;;15.60;99.90;;;;;;5072189;28;20208;-62
2021/09/07 00:51:58;;;;;;;8.53;6.83;;;15.60;99.90;;;;;;5072106;28;20201;-62
2021/09/07 00:54:29;;;;;;;9.57;7.60;;;15.60;99.90;;;;;;5071963;28;20216;-62
2021/09/07 00:56:57;;;;;;;9.53;7.40;;;15.50;99.90;;;;;;5071798;28;20266;-62
2021/09/07 00:59:24;;;;;;;9.90;7.50;;;15.50;99.90;;;;;;5072055;28;20217;-62
2021/09/07 01:01:51;;;;;;;10.97;8.03;;;15.40;99.90;;;;;;5072127;28;20221;-62
2021/09/07 01:04:19;;;;;;;9.17;7.70;;;15.40;99.90;;;;;;5071095;28;20212;-62
2021/09/07 01:06:46;;;;;;;8.40;7.30;;;15.40;99.90;;;;;;5072356;28;20326;-62
2021/09/07 01:09:13;;;;;;;8.93;7.67;;;15.30;99.90;;;;;;5072253;28;20353;-62
2021/09/07 01:11:40;;;;;;;9.23;8.33;;;15.30;99.90;;;;;;5072170;28;20211;-62
2021/09/07 01:14:07;;;;;;;11.77;8.07;;;15.30;99.90;;;;;;5072760;28;20251;-62
2021/09/07 01:16:33;;;;;;;8.17;7.27;;;15.30;99.90;;;;;;5073406;28;20694;-62
2021/09/07 01:19:00;;;;;;;9.50;8.17;;;15.20;99.90;;;;;;5072443;28;20239;-62
2021/09/07 01:21:28;;;;;;;9.63;8.53;;;15.20;99.90;;;;;;5072031;28;20266;-62
2021/09/07 01:23:55;;;;;;;9.53;7.73;;;15.20;99.90;;;;;;5071238;28;20227;-62
2021/09/07 01:26:24;;;;;;;11.13;8.00;;;15.20;99.90;;;;;;5071719;28;20205;-62
2021/09/07 01:28:50;;;;;;;9.70;7.80;;;15.20;99.90;;;;;;5071325;28;20237;-62
2021/09/07 01:31:17;;;;;;;8.00;7.20;;;15.10;99.90;;;;;;5071460;28;20208;-62
2021/09/07 01:33:47;;;;;;;10.33;7.50;;;15.10;99.90;;;;;;5071642;28;20201;-62
2021/09/07 01:36:15;;;;;;;8.97;7.37;;;15.10;99.90;;;;;;5071432;28;20271;-62
2021/09/07 01:38:42;;;;;;;9.87;7.70;;;15.00;99.90;;;;;;5071100;28;20267;-62
2021/09/07 01:41:09;;;;;;;9.60;7.73;;;14.90;99.90;;;;;;5071276;28;20631;-62
2021/09/07 01:43:37;;;;;;;10.57;7.33;;;14.80;99.90;;;;;;5071386;28;20229;-62
2021/09/07 01:46:04;;;;;;;11.03;7.83;;;14.70;99.90;;;;;;5071366;28;20201;-62
2021/09/07 01:48:31;;;;;;;9.57;8.03;;;14.60;99.90;;;;;;5071149;28;20265;-62
2021/09/07 01:50:57;;;;;;;7.87;7.10;;;14.60;99.90;;;;;;5071218;28;20212;-62
2021/09/07 01:53:24;;;;;;;10.80;7.70;;;14.50;99.90;;;;;;5071205;28;20225;-62
2021/09/07 01:55:51;;;;;;;13.50;7.97;;;14.40;99.90;;;;;;5071348;28;20205;-62
2021/09/07 01:58:18;;;;;;;10.10;8.07;;;14.40;99.90;;;;;;5070987;28;20307;-62
2021/09/07 02:00:46;;;;;;;9.27;7.50;;;14.40;99.90;;;;;;5071011;28;20676;-62
2021/09/07 02:03:13;;;;;;;8.40;7.50;;;14.40;99.90;;;;;;5071312;28;20278;-62
2021/09/07 02:05:39;;;;;;;10.13;7.73;;;14.30;99.90;;;;;;5070741;28;20216;-62
2021/09/07 02:08:06;;;;;;;9.13;8.07;;;14.40;99.90;;;;;;5070756;28;20217;-62
2021/09/07 02:10:33;;;;;;;9.30;7.97;;;14.40;99.90;;;;;;5070969;28;20262;-62
2021/09/07 02:13:00;;;;;;;9.73;7.70;;;14.40;99.90;;;;;;5072297;28;20225;-62
2021/09/07 02:15:29;;;;;;;9.27;8.27;;;14.30;99.90;;;;;;5071327;28;20677;-62
2021/09/07 02:17:57;;;;;;;9.47;7.40;;;14.40;99.90;;;;;;5071591;28;20315;-62
2021/09/07 02:20:24;;;;;;;9.30;7.77;;;14.40;99.90;;;;;;5071528;28;20208;-62
2021/09/07 02:22:50;;;;;;;10.17;8.27;;;14.30;99.90;;;;;;5071782;28;20225;-62
2021/09/07 02:25:17;;;;;;;9.73;8.10;;;14.30;99.90;;;;;;5071416;28;20208;-62
2021/09/07 02:27:44;;;;;;;9.87;8.17;;;14.20;99.90;;;;;;5071376;28;20613;-62
2021/09/07 02:30:12;;;;;;;9.00;8.10;;;14.20;99.90;;;;;;5070996;28;20629;-62
2021/09/07 02:32:38;;;;;;;8.83;7.80;;;14.20;99.90;;;;;;5070618;28;20249;-62
2021/09/07 02:35:07;;;;;;;8.90;8.03;;;14.20;99.90;;;;;;5070684;28;20581;-62
2021/09/07 02:37:34;;;;;;;9.43;7.60;;;14.20;99.90;;;;;;5070582;28;20221;-62
2021/09/07 02:40:01;;;;;;;9.17;8.27;;;14.10;99.90;;;;;;5070430;28;20704;-62
2021/09/07 02:42:27;;;;;;;10.03;7.73;;;14.10;99.90;;;;;;5070388;28;20568;-62
2021/09/07 02:44:54;;;;;;;9.40;8.00;;;14.10;99.90;;;;;;5070290;28;20697;-62
2021/09/07 02:47:21;;;;;;;8.73;7.73;;;14.10;99.90;;;;;;5070296;28;20248;-62
2021/09/07 02:49:47;;;;;;;9.57;8.00;;;14.10;99.90;;;;;;5070498;28;20216;-62
2021/09/07 02:52:15;;;;;;;9.00;7.90;;;14.10;99.90;;;;;;5070589;28;20212;-62
2021/09/07 02:54:42;;;;;;;10.10;7.93;;;14.10;99.90;;;;;;5070236;28;20609;-62
2021/09/07 02:57:09;;;;;;;9.73;8.07;;;14.00;99.90;;;;;;5070331;28;20232;-62
2021/09/07 02:59:35;;;;;;;8.83;7.43;;;13.90;99.90;;;;;;5070273;28;20205;-62
2021/09/07 03:02:02;;;;;;;9.60;7.47;;;13.90;99.90;;;;;;5070197;28;20211;-62
2021/09/07 03:04:29;;;;;;;10.87;7.60;;;14.00;99.90;;;;;;5070252;28;20601;-62
2021/09/07 03:06:56;;;;;;;9.70;8.33;;;14.00;99.90;;;;;;5070467;28;20259;-62
2021/09/07 03:09:24;;;;;;;9.40;7.87;;;13.90;99.90;;;;;;5070638;28;20201;-62
2021/09/07 03:11:50;;;;;;;9.33;8.30;;;13.90;99.90;;;;;;5070525;28;20204;-62
2021/09/07 03:14:17;;;;;;;9.33;8.30;;;13.90;99.90;;;;;;5070223;28;20204;-62
2021/09/07 03:16:44;;;;;;;9.93;8.07;;;13.90;99.90;;;;;;5070351;28;20201;-62
2021/09/07 03:19:10;;;;;;;9.03;8.10;;;13.90;99.90;;;;;;5070443;28;20205;-62
2021/09/07 03:21:38;;;;;;;11.17;8.50;;;13.80;99.90;;;;;;5070214;28;20212;-62
2021/09/07 03:24:05;;;;;;;9.80;8.37;;;13.70;99.90;;;;;;5070152;28;20264;-62
2021/09/07 03:26:33;;;;;;;9.63;7.90;;;13.70;99.90;;;;;;5070245;28;20205;-62
2021/09/07 03:29:00;;;;;;;12.50;8.10;;;13.70;99.90;;;;;;5073488;28;20301;-62
2021/09/07 03:31:27;;;;;;;9.90;7.67;;;13.80;99.90;;;;;;5074022;28;20205;-63
2021/09/07 03:33:53;;;;;;;10.20;8.47;;;13.70;99.90;;;;;;5073315;28;20621;-64
2021/09/07 03:36:20;;;;;;;18.57;13.23;;;13.70;99.90;;;;;;5074018;28;20252;-62
2021/09/07 03:38:47;;;;;;;10.33;8.43;;;13.80;99.90;;;;;;5073133;28;20712;-63
2021/09/07 03:41:14;;;;;;;8.03;7.20;;;13.80;99.90;;;;;;5073310;28;20680;-64
2021/09/07 03:43:42;;;;;;;13.17;8.13;;;13.70;99.90;;;;;;5072984;28;20217;-63
2021/09/07 03:46:08;;;;;;;9.33;8.20;;;13.70;99.90;;;;;;5073354;28;20215;-64
2021/09/07 03:48:35;;;;;;;9.93;8.93;;;13.70;99.90;;;;;;5073258;28;20225;-63
2021/09/07 03:51:02;;;;;;;10.13;7.77;;;13.70;99.90;;;;;;5073166;28;20784;-64
2021/09/07 03:53:30;;;;;;;10.00;8.20;;;13.80;99.90;;;;;;5073012;28;20205;-63
2021/09/07 03:55:57;;;;;;;11.60;9.07;;;13.80;99.90;;;;;;5073053;28;20209;-63
2021/09/07 03:58:24;;;;;;;11.67;9.40;;;13.80;99.90;;;;;;5073170;28;20270;-62
2021/09/07 04:00:52;;;;;;;16.23;9.23;;;13.80;99.90;;;;;;5073235;28;20200;-62
2021/09/07 04:03:20;;;;;;;13.63;9.10;;;13.80;99.90;;;;;;5073094;28;20227;-63
2021/09/07 04:05:48;;;;;;;9.97;8.97;;;13.80;99.90;;;;;;5072806;28;20601;-63
2021/09/07 04:08:15;;;;;;;10.27;8.53;;;13.80;99.90;;;;;;5072870;28;20221;-63
2021/09/07 04:10:41;;;;;;;13.23;8.47;;;13.90;99.90;;;;;;5072786;28;20300;-63
2021/09/07 04:13:08;;;;;;;11.43;8.33;;;13.90;99.90;;;;;;5073021;28;20201;-63
2021/09/07 04:15:35;;;;;;;9.43;8.13;;;13.80;99.90;;;;;;5072988;28;20209;-64
2021/09/07 04:18:03;;;;;;;9.37;8.27;;;13.80;99.90;;;;;;5072621;28;20551;-63
2021/09/07 04:20:30;;;;;;;11.27;9.00;;;13.80;99.90;;;;;;5072714;28;20205;-63
2021/09/07 04:22:57;;;;;;;9.40;8.23;;;13.80;99.90;;;;;;5072573;28;20216;-63
2021/09/07 04:25:24;;;;;;;9.53;7.87;;;13.80;99.90;;;;;;5072698;28;20232;-64
2021/09/07 04:27:51;;;;;;;9.27;8.27;;;13.80;99.90;;;;;;5072501;28;20233;-64
2021/09/07 04:30:18;;;;;;;11.63;8.43;;;13.80;99.90;;;;;;5072708;28;20337;-63
2021/09/07 04:32:44;;;;;;;10.47;8.33;;;13.80;99.90;;;;;;5072666;28;20213;-63
2021/09/07 04:35:13;;;;;;;10.77;8.83;;;13.80;99.90;;;;;;5072437;28;20209;-63
2021/09/07 04:37:39;;;;;;;9.37;8.37;;;13.90;99.90;;;;;;5072244;28;20232;-63
2021/09/07 04:40:07;;;;;;;9.30;8.40;;;13.90;99.90;;;;;;5072507;28;20266;-63
2021/09/07 04:42:34;;;;;;;10.73;8.37;;;13.90;99.90;;;;;;5072567;28;20217;-63
2021/09/07 04:45:00;;;;;;;10.20;8.80;;;13.90;99.90;;;;;;5072334;28;20228;-64
2021/09/07 04:47:27;;;;;;;10.77;8.37;;;13.90;99.90;;;;;;5072092;28;20232;-62
2021/09/07 04:49:54;;;;;;;9.90;8.73;;;13.90;99.90;;;;;;5072008;28;20208;-63
2021/09/07 04:52:22;;;;;;;12.97;10.03;;;13.90;99.90;;;;;;5071870;28;20578;-63
2021/09/07 04:54:48;;;;;;;12.13;9.63;;;13.90;99.90;;;;;;5071797;28;20602;-63
2021/09/07 04:57:15;;;;;;;10.73;9.00;;;14.00;99.90;;;;;;5072041;28;20232;-62
2021/09/07 04:59:42;;;;;;;13.13;8.57;;;14.00;99.90;;;;;;5071929;28;20205;-63
2021/09/07 05:02:09;;;;;;;11.63;8.47;;;14.00;99.90;;;;;;5071981;28;20216;-63
2021/09/07 05:04:35;;;;;;;11.73;8.70;;;14.10;99.90;;;;;;5071739;28;20224;-63
2021/09/07 05:07:02;;;;;;;11.20;9.10;;;14.00;99.90;;;;;;5071710;28;20204;-63
2021/09/07 05:09:30;;;;;;;12.67;8.90;;;14.10;99.90;;;;;;5071685;28;20216;-63
2021/09/07 05:11:56;;;;;;;14.13;9.77;;;14.10;99.90;;;;;;5071822;28;20208;-62
2021/09/07 05:14:23;;;;;;;10.30;8.53;;;14.20;99.90;;;;;;5071389;28;20247;-63
2021/09/07 05:16:50;;;;;;;12.63;9.33;;;14.30;99.90;;;;;;5071383;28;20555;-63
2021/09/07 05:19:17;;;;;;;10.00;8.57;;;14.30;99.90;;;;;;5071292;28;20209;-64
2021/09/07 05:21:46;;;;;;;11.30;9.43;;;14.40;99.90;;;;;;5071700;28;20205;-62
2021/09/07 05:24:13;;;;;;;12.43;9.03;;;14.40;99.90;;;;;;5071275;28;20592;-63
2021/09/07 05:26:41;;;;;;;10.57;8.40;;;14.50;99.90;;;;;;5071629;28;20213;-63
2021/09/07 05:29:08;;;;;;;14.23;8.90;;;14.60;99.90;;;;;;5071135;28;20747;-61
2021/09/07 05:31:35;;;;;;;11.00;9.10;;;14.60;99.90;;;;;;5071414;28;20209;-63
2021/09/07 05:34:01;;;;;;;12.90;8.93;;;14.70;99.90;;;;;;5071202;28;20211;-62
2021/09/07 05:36:28;;;;;;;14.83;9.13;;;14.80;99.90;;;;;;5071460;28;20212;-62
2021/09/07 05:38:55;;;;;;;11.40;8.67;;;14.90;99.90;;;;;;5071444;28;20302;-63
2021/09/07 05:41:21;;;;;;;11.10;8.93;;;14.90;99.90;;;;;;5071511;28;20205;-63
2021/09/07 05:43:49;;;;;;;11.57;8.87;;;15.00;99.90;;;;;;5070949;28;20227;-62
2021/09/07 05:46:16;;;;;;;10.10;8.77;;;15.20;99.90;;;;;;5071237;28;20215;-63
2021/09/07 05:48:43;;;;;;;10.73;8.70;;;15.20;99.90;;;;;;5071495;28;20712;-63
2021/09/07 05:51:09;;;;;;;8.83;7.93;;;15.40;99.90;;;;;;5070773;28;20205;-63
2021/09/07 05:53:39;;;;;;;9.70;7.97;;;15.50;99.90;;;;;;5071410;28;20208;-63
2021/09/07 05:56:06;;;;;;;9.60;8.40;;;15.60;99.90;;;;;;5071509;28;20303;-63
2021/09/07 05:58:32;;;;;;;11.00;8.47;;;15.80;99.90;;;;;;5070938;28;20651;-63
2021/09/07 06:01:00;;;;;;;11.80;8.37;;;15.80;99.90;;;;;;5071103;28;20563;-62
2021/09/07 06:03:27;;;;;;;13.43;8.60;;;15.90;99.90;;;;;;5070979;28;20213;-62
2021/09/07 06:05:54;;;;;;;10.87;8.70;;;16.00;99.90;;;;;;5071038;28;20220;-63
2021/09/07 06:08:20;;;;;;;11.63;8.93;;;16.00;99.90;;;;;;5071319;28;20248;-63
2021/09/07 06:10:47;;;;;;;9.07;8.17;;;16.10;99.90;;;;;;5071367;28;20204;-62
2021/09/07 06:13:14;;;;;;;12.30;8.20;;;16.20;99.90;;;;;;5070789;28;20707;-62
2021/09/07 06:15:41;;;;;;;11.30;8.57;;;16.30;99.90;;;;;;5070725;28;20215;-62
2021/09/07 06:18:09;;;;;;;12.13;8.73;;;16.50;99.90;;;;;;5070359;28;20775;-63
2021/09/07 06:20:36;;;;;;;12.80;8.77;;;16.60;99.90;;;;;;5070731;28;20208;-62
2021/09/07 06:23:03;;;;;;;10.03;8.00;;;16.70;99.90;;;;;;5070863;28;20208;-62
2021/09/07 06:25:30;;;;;;;9.73;8.60;;;16.80;99.90;;;;;;5070370;28;20229;-63
2021/09/07 06:27:57;;;;;;;10.63;8.43;;;16.90;99.90;;;;;;5070386;28;20240;-61
2021/09/07 06:30:23;;;;;;;11.43;8.20;;;16.90;99.90;;;;;;5070580;28;20207;-62
2021/09/07 06:32:50;;;;;;;9.60;8.00;;;17.00;99.90;;;;;;5070945;28;20204;-63
2021/09/07 06:35:18;;;;;;;11.57;8.30;;;17.10;99.90;;;;;;5070637;28;20520;-63
2021/09/07 06:37:45;;;;;;;9.63;8.10;;;17.30;99.90;;;;;;5070503;28;20229;-64
2021/09/07 06:40:12;;;;;;;12.75;8.63;;;17.40;99.90;;;;;;5070564;28;20216;-64
2021/09/07 06:42:39;;;;;;;9.43;8.43;;;17.50;99.90;;;;;;5070643;28;20300;-62
2021/09/07 06:45:07;;;;;;;11.45;8.00;;;17.60;99.90;;;;;;5070209;28;20727;-64
2021/09/07 06:47:34;;;;;;;9.43;7.87;;;17.80;99.90;;;;;;5070718;28;20240;-61
2021/09/07 06:50:02;;;;;;;9.23;8.25;;;17.90;99.90;;;;;;5071142;28;20209;-64
2021/09/07 06:52:30;;;;;;;9.32;7.93;;;18.20;99.90;;;;;;5070610;28;20283;-64
2021/09/07 06:54:57;;;;;;;9.93;8.15;;;18.60;99.90;;;;;;5070122;28;20690;-64
2021/09/07 06:57:25;;;;;;;10.75;7.90;;;19.10;99.90;;;;;;5071002;28;20225;-63
2021/09/07 06:59:52;;;;;;;8.32;7.50;;;19.70;99.90;;;;;;5070681;28;20240;-63
2021/09/07 07:02:19;;;;;;;10.45;8.00;;;20.50;99.90;;;;;;5071043;28;20208;-64
2021/09/07 07:04:46;;;;;;;11.80;7.93;;;21.30;99.90;;;;;;5074076;28;20225;-63
2021/09/07 07:07:12;;;;;;;14.40;8.43;;;22.20;99.90;;;;;;5074110;28;20224;-64
2021/09/07 07:09:40;;;;;;;9.07;7.03;;;23.70;99.90;;;;;;5074084;28;20294;-62
2021/09/07 07:12:08;;;;;;;12.90;9.07;;;25.30;99.90;;;;;;5074034;28;20220;-62
2021/09/07 07:14:35;;;;;;;9.20;7.10;;;26.30;99.90;;;;;;5074139;28;20205;-63
2021/09/07 07:17:01;;;;;;;8.82;6.95;;;26.70;99.90;;;;;;5073991;28;20215;-63
2021/09/07 07:19:28;;;;;;;8.10;6.65;;;26.90;99.90;;;;;;5073819;28;20209;-63
2021/09/07 07:21:55;;;;;;;11.10;7.18;;;27.00;99.50;;;;;;5073673;28;20285;-63
2021/09/07 07:24:21;;;;;;;8.63;6.97;;;27.00;99.00;;;;;;5073330;28;20224;-63
2021/09/07 07:26:49;;;;;;;10.43;7.10;;;27.00;98.20;;;;;;5073707;28;20700;-63
2021/09/07 07:29:16;;;;;;;7.45;6.72;;;27.30;97.00;;;;;;5073425;28;20583;-62
2021/09/07 07:31:43;;;;;;;13.77;7.22;;;27.80;95.80;;;;;;5073624;28;20213;-63
2021/09/07 07:34:10;;;;;;;11.40;8.15;;;28.70;93.00;;;;;;5073376;28;20208;-63
2021/09/07 07:36:37;;;;;;;11.18;7.68;;;29.40;89.40;;;;;;5073211;28;20668;-63
2021/09/07 07:39:04;;;;;;;8.93;6.38;;;29.70;86.50;;;;;;5073085;28;20299;-63
2021/09/07 07:41:31;;;;;;;7.10;6.22;;;29.90;83.70;;;;;;5073479;28;20201;-63
2021/09/07 07:43:59;;;;;;;7.15;6.45;;;30.10;81.80;;;;;;5072891;28;20213;-63
2021/09/07 07:46:26;;;;;;;9.57;6.40;;;30.30;79.70;;;;;;5073231;28;20207;-63
2021/09/07 07:48:54;;;;;;;7.25;6.40;;;30.30;79.00;;;;;;5073257;28;20224;-63
2021/09/07 07:51:21;;;;;;;7.70;6.00;;;30.60;77.20;;;;;;5073115;28;20672;-63
2021/09/07 07:53:48;;;;;;;9.40;6.30;;;31.20;75.70;;;;;;5073371;28;20216;-63
2021/09/07 07:56:14;;;;;;;9.82;6.60;;;31.80;72.30;;;;;;5073309;28;20209;-63
2021/09/07 07:58:41;;;;;;;7.32;6.25;;;32.20;69.90;;;;;;5073290;28;20713;-63
2021/09/07 08:01:09;;;;;;;9.18;5.97;;;32.40;68.70;;;;;;5073587;28;20220;-63
2021/09/07 08:03:36;;;;;;;9.60;6.65;;;32.70;67.20;;;;;;5072759;28;20205;-63
2021/09/07 08:06:03;;;;;;;8.23;6.50;;;32.40;67.50;;;;;;5072912;28;20657;-63
2021/09/07 08:08:29;;;;;;;8.23;6.50;;;31.50;70.00;;;;;;5072948;28;20228;-63
2021/09/07 08:10:56;;;;;;;9.02;6.28;;;30.50;72.10;;;;;;5073281;28;20212;-63
2021/09/07 08:13:23;;;;;;;6.60;5.90;;;29.70;75.00;;;;;;5072408;28;20409;-63
2021/09/07 08:15:49;;;;;;;9.45;6.78;;;28.80;76.80;;;;;;5072921;28;20201;-63
2021/09/07 08:18:17;;;;;;;7.93;6.38;;;28.00;79.20;;;;;;5072774;28;20229;-62
2021/09/07 08:20:44;;;;;;;7.78;6.18;;;27.40;81.30;;;;;;5072835;28;20204;-62
2021/09/07 08:23:11;;;;;;;7.53;6.25;;;27.00;82.60;;;;;;5073022;28;20217;-63
2021/09/07 08:25:37;;;;;;;9.27;7.20;;;26.60;83.40;;;;;;5073107;28;20236;-63
2021/09/07 08:28:05;;;;;;;6.90;6.20;;;26.30;86.80;;;;;;5073140;28;20293;-62
2021/09/07 08:30:31;;;;;;;10.27;6.32;;;26.20;87.00;;;;;;5072549;28;20204;-62
2021/09/07 08:32:58;;;;;;;8.50;6.60;;;26.00;88.50;;;;;;5072698;28;20218;-62
2021/09/07 08:35:26;;;;;;;9.88;6.45;;;25.90;88.90;;;;;;5072467;28;20208;-62
2021/09/07 08:37:53;;;;;;;8.38;6.57;;;25.80;89.40;;;;;;5072458;28;20235;-62
2021/09/07 08:40:20;;;;;;;8.93;6.78;;;25.70;90.00;;;;;;5072498;28;20232;-62
2021/09/07 08:42:46;;;;;;;7.90;6.40;;;25.60;90.90;;;;;;5072416;28;20213;-62
2021/09/07 08:45:15;;;;;;;7.20;6.50;;;25.50;91.00;;;;;;5072038;28;20225;-62
2021/09/07 08:47:45;;;;;;;9.75;7.35;;;25.30;91.70;;;;;;5071928;28;20225;-62
2021/09/07 08:50:13;;;;;;;8.35;7.18;;;25.20;92.30;;;;;;5072684;28;20204;-63
2021/09/07 08:52:41;;;;;;;8.07;6.45;;;24.80;92.90;;;;;;5072172;28;20213;-61
2021/09/07 08:55:08;;;;;;;8.23;6.93;;;24.60;93.60;;;;;;5072003;28;20200;-62
2021/09/07 08:57:35;;;;;;;9.85;6.82;;;24.60;93.80;;;;;;5071922;28;20612;-62
2021/09/07 09:00:04;;;;;;;9.02;6.57;;;24.50;94.40;;;;;;5071829;28;20238;-62
2021/09/07 09:02:40;;;;;;;9.07;6.63;;;24.60;94.40;;;;;;5072127;28;20200;-62
2021/09/07 09:05:07;;;;;;;9.52;6.97;;;24.70;94.20;;;;;;5071586;28;20251;-62
2021/09/07 09:07:34;;;;;;;7.55;6.72;;;24.60;94.20;;;;;;5071875;28;20225;-61
2021/09/07 09:10:02;;;;;;;10.95;6.97;;;24.70;94.30;;;;;;5071605;28;20679;-62
2021/09/07 09:12:32;;;;;;;9.15;6.78;;;24.90;94.50;;;;;;5071800;28;20212;-62
2021/09/07 09:14:58;;;;;;;8.95;6.90;;;25.10;94.70;;;;;;5071343;28;20286;-62
2021/09/07 09:17:28;;;;;;;7.97;6.55;;;25.20;94.30;;;;;;5071670;28;20240;-62
2021/09/07 09:19:58;;;;;;;7.97;6.78;;;25.40;94.20;;;;;;5071650;28;20213;-62
2021/09/07 09:22:50;;;;;;;8.80;6.18;;;25.50;93.50;;;;;;5071585;28;20213;-62
2021/09/07 09:25:27;;;;;;;13.02;7.53;;;25.50;93.50;;;;;;5070413;28;20220;-62
2021/09/07 09:28:14;;;;;;;7.85;6.30;;;25.50;93.50;;;;;;5072209;28;20233;-63
2021/09/07 09:30:43;;;;;;;9.88;6.20;;;25.60;93.60;;;;;;5071471;28;20208;-61
2021/09/07 09:33:11;;;;;;;8.02;6.32;;;25.60;93.40;;;;;;5071436;28;20205;-61
2021/09/07 09:36:00;;;;;;;8.48;6.72;;;25.60;92.80;;;;;;5068114;28;20434;-63
2021/09/07 09:38:28;;;;;;;8.68;6.32;;;25.60;92.90;;;;;;5065135;28;20231;-64
2021/09/07 09:41:03;;;;;;;7.63;6.47;;;25.60;92.70;;;;;;5071037;28;20205;-64
2021/09/07 09:43:38;;;;;;;8.65;5.95;;;25.70;91.60;;;;;;5071162;28;20208;-61
2021/09/07 09:46:19;;;;;;;7.30;5.97;;;25.80;91.40;;;;;;5070852;28;20273;-66
2021/09/07 09:48:46;;;;;;;8.65;5.57;;;25.80;90.20;;;;;;5071811;28;20323;-63
2021/09/07 09:51:16;;;;;;;8.35;5.57;;;25.80;88.10;;;;;;5070955;28;20208;-63
2021/09/07 09:53:46;;;;;;;8.25;5.75;;;26.00;85.00;;;;;;5070823;28;20248;-64
2021/09/07 09:56:14;;;;;;;7.40;5.53;;;26.20;84.20;;;;;;5070616;28;20673;-63
2021/09/07 09:58:41;;;;;;;6.32;5.22;;;26.30;82.10;;;;;;5070371;28;20771;-63
2021/09/07 10:01:08;;;;;;;6.68;5.60;;;26.50;83.70;;;;;;5071137;28;20216;-63
2021/09/07 10:03:40;;;;;;;9.68;6.00;;;26.60;83.60;;;;;;5070479;28;20205;-62
2021/09/07 10:06:07;;;;;;;9.20;6.20;;;26.60;82.20;;;;;;5070422;28;20704;-61
2021/09/07 10:08:35;;;;;;;7.53;6.10;;;26.50;83.10;;;;;;5070315;28;20299;-61
2021/09/07 10:11:06;;;;;;;5.80;5.20;;;26.50;83.10;;;;;;5070257;28;20208;-66
2021/09/07 10:13:36;;;;;;;7.55;5.68;;;26.60;82.20;;;;;;5070578;28;20236;-65
2021/09/07 10:16:06;;;;;;;6.70;5.65;;;26.70;83.30;;;;;;5070714;28;20196;-64
2021/09/07 10:18:51;;;;;;;6.38;5.47;;;26.70;81.80;;;;;;5070272;28;20225;-65
2021/09/07 10:24:53;;;;;;;8.32;5.30;;;26.90;80.00;;;;;;5070172;28;20680;-64
2021/09/07 10:27:21;;;;;;;6.57;5.57;;;27.00;79.80;;;;;;5064210;28;20239;-67
2021/09/07 10:29:50;;;;;;;8.05;5.50;;;26.90;81.20;;;;;;5050024;28;20213;-70
2021/09/07 10:32:33;;;;;;;8.40;6.20;;;26.90;81.20;;;;;;5050619;28;20209;-67
2021/09/07 10:35:17;;;;;;;7.00;6.03;;;27.00;81.00;;;;;;5050019;28;20206;-69
2021/09/07 10:38:10;;;;;;;6.38;5.63;;;27.10;81.90;;;;;;5053065;28;20217;-70
2021/09/07 10:40:45;;;;;;;6.72;5.53;;;27.20;80.60;;;;;;5054384;28;20210;-66
2021/09/07 10:43:12;;;;;;;9.27;5.68;;;27.20;80.40;;;;;;5054497;28;20209;-62
2021/09/07 10:45:41;;;;;;;7.00;5.88;;;27.30;79.20;;;;;;5054223;28;20251;-63
2021/09/07 10:48:32;;;;;;;6.90;5.72;;;27.30;78.20;;;;;;5054151;28;20237;-62
2021/09/07 10:51:02;;;;;;;6.70;5.53;;;27.40;78.30;;;;;;5034888;28;20580;-63
2021/09/07 10:53:29;;;;;;;6.03;5.28;;;27.50;77.80;;;;;;5054403;28;20262;-63
2021/09/07 10:56:26;;;;;;;6.95;5.78;;;27.60;78.00;;;;;;5054696;28;20209;-63
2021/09/07 10:58:53;;;;;;;6.45;5.43;;;27.60;77.90;;;;;;5053971;28;20316;-63
2021/09/07 11:01:28;;;;;;;6.85;5.85;;;27.60;77.00;;;;;;5054364;28;20212;-63
2021/09/07 11:04:32;;;;;;;7.20;5.72;;;27.50;77.40;;;;;;5054345;28;20205;-63
2021/09/07 11:07:00;;;;;;;7.25;5.30;;;27.60;76.50;;;;;;5012703;28;20613;-63
2021/09/07 11:09:51;;;;;;;6.22;5.60;;;27.70;75.90;;;;;;5053816;28;20209;-63
2021/09/07 11:12:28;;;;;;;6.53;5.78;;;27.90;76.10;;;;;;5054339;28;20271;-64
2021/09/07 11:15:08;;;;;;;6.95;5.22;;;28.10;75.00;;;;;;5053823;28;20220;-64
2021/09/07 11:17:38;;;;;;;7.60;5.45;;;28.30;73.80;;;;;;5053816;28;20229;-63
2021/09/07 11:20:08;;;;;;;6.15;5.50;;;28.30;73.60;;;;;;5054012;28;20496;-63
2021/09/07 11:22:35;;;;;;;5.95;5.35;;;28.20;72.80;;;;;;5053822;28;20233;-63
2021/09/07 11:25:08;;;;;;;8.45;5.35;;;28.10;74.10;;;;;;5053279;28;20237;-63
2021/09/07 11:27:56;;;;;;;5.25;4.75;;;28.20;73.40;;;;;;5053357;28;20602;-63
2021/09/07 11:30:31;;;;;;;7.07;5.38;;;28.20;72.10;;;;;;5053980;28;20205;-64
2021/09/07 11:33:05;;;;;;;6.28;5.65;;;28.30;72.60;;;;;;5053342;28;20696;-64
2021/09/07 11:35:33;;;;;;;7.20;5.00;;;28.50;72.80;;;;;;5053334;28;20198;-64
2021/09/07 11:38:02;;;;;;;8.93;6.50;;;28.50;72.40;;;;;;5052823;28;20235;-64
2021/09/07 11:40:29;;;;;;;6.13;5.50;;;28.60;72.20;;;;;;5053094;28;20201;-62
2021/09/07 11:42:56;;;;;;;7.45;5.63;;;28.70;70.60;;;;;;5053685;28;20209;-63
2021/09/07 11:45:25;;;;;;;6.57;5.82;;;28.80;70.40;;;;;;5053099;28;20226;-62
2021/09/07 11:47:53;;;;;;;8.13;5.05;;;28.70;70.90;;;;;;5052011;28;20684;-63
2021/09/07 11:50:23;;;;;;;6.45;5.28;;;28.70;70.60;;;;;;5053059;28;20209;-63
2021/09/07 11:52:51;;;;;;;7.95;5.63;;;28.80;70.90;;;;;;5053397;28;20214;-63
2021/09/07 11:55:43;;;;;;;6.65;5.68;;;28.70;70.50;;;;;;5052801;28;20208;-63
2021/09/07 11:58:11;;;;;;;7.25;5.93;;;28.80;71.00;;;;;;5052810;28;20237;-62
2021/09/07 12:00:38;;;;;;;6.70;6.07;;;28.90;71.60;;;;;;5052951;28;20212;-62
2021/09/07 12:03:15;;;;;;;9.75;5.70;;;28.90;70.50;;;;;;5052990;28;20205;-63
2021/09/07 12:05:54;;;;;;;8.68;5.40;;;29.10;69.20;;;;;;5052610;28;20221;-63
2021/09/07 12:08:21;;;;;;;6.80;5.60;;;29.20;68.40;;;;;;5052507;28;20686;-63
2021/09/07 12:10:52;;;;;;;6.68;5.60;;;29.30;68.00;;;;;;5053058;28;20209;-64
2021/09/07 12:13:20;;;;;;;6.32;5.03;;;29.50;67.90;;;;;;5052718;28;20205;-63
2021/09/07 12:15:47;;;;;;;5.90;5.30;;;29.60;67.40;;;;;;5053763;28;20748;-62
2021/09/07 12:18:26;;;;;;;6.63;5.60;;;29.70;67.30;;;;;;5052259;28;20236;-63
2021/09/07 12:21:15;;;;;;;5.88;5.07;;;29.80;67.10;;;;;;5052831;28;20255;-64
2021/09/07 12:23:43;;;;;;;5.97;5.38;;;29.90;67.30;;;;;;5052457;28;20206;-63
2021/09/07 12:26:10;;;;;;;5.68;5.18;;;29.90;67.00;;;;;;5052653;28;20577;-63
2021/09/07 12:28:39;;;;;;;6.57;5.13;;;30.00;66.50;;;;;;5052183;28;20359;-64
2021/09/07 12:31:14;;;;;;;6.63;5.15;;;30.10;66.60;;;;;;5052629;28;20770;-64
2021/09/07 12:33:44;;;;;;;5.38;4.85;;;30.10;66.30;;;;;;5052822;28;20205;-64
2021/09/07 12:36:12;;;;;;;6.15;5.40;;;30.20;66.40;;;;;;5052668;28;20232;-64
2021/09/07 12:38:39;;;;;;;5.95;5.20;;;30.20;66.60;;;;;;5052281;28;20324;-63
2021/09/07 12:41:08;;;;;;;6.43;5.78;;;30.00;65.30;;;;;;5052141;28;20229;-61
2021/09/07 12:43:38;;;;;;;7.88;5.68;;;29.90;66.40;;;;;;5052155;28;20230;-62
2021/09/07 12:46:06;;;;;;;7.97;5.45;;;30.00;66.50;;;;;;5051858;28;20221;-62
2021/09/07 12:48:33;;;;;;;6.35;5.50;;;30.10;66.20;;;;;;5052094;28;20226;-62
2021/09/07 12:51:02;;;;;;;8.90;5.32;;;30.10;65.90;;;;;;5051733;28;20815;-62
2021/09/07 12:53:36;;;;;;;9.00;5.15;;;30.20;65.60;;;;;;5051700;28;20209;-62